createdAt,value
2022-08-12T00:00:06.266Z,4.22
2022-08-12T00:02:51.686Z,5.85
2022-08-12T00:05:44.493Z,7.25
2022-08-12T00:08:47.168Z,6.53
2022-08-12T00:11:34.269Z,4.18
2022-08-12T00:14:20.113Z,7.75
2022-08-12T00:17:07.036Z,4.63
2022-08-12T00:19:52.349Z,5.45
2022-08-12T00:22:38.871Z,5.43
2022-08-12T00:26:19.660Z,9.07
2022-08-12T00:28:32.922Z,5.22
2022-08-12T00:31:19.057Z,5.22
2022-08-12T00:34:05.157Z,4.40
2022-08-12T00:36:51.615Z,5.72
2022-08-12T00:39:39.985Z,9.40
2022-08-12T00:42:12.873Z,7.22
2022-08-12T00:44:44.689Z,4.03
2022-08-12T00:47:24.911Z,9.38
2022-08-12T00:49:56.893Z,6.00
2022-08-12T00:52:26.003Z,4.18
2022-08-12T00:54:59.184Z,5.88
2022-08-12T00:57:29.242Z,6.38
2022-08-12T01:00:02.629Z,5.50
2022-08-12T01:02:33.585Z,4.93
2022-08-12T01:05:23.404Z,4.85
2022-08-12T01:08:10.483Z,7.78
2022-08-12T01:10:58.690Z,4.55
2022-08-12T01:13:27.956Z,6.13
2022-08-12T01:16:01.280Z,7.80
2022-08-12T01:18:34.118Z,4.60
2022-08-12T01:21:12.098Z,7.07
2022-08-12T01:24:22.876Z,8.65
2022-08-12T01:26:55.834Z,7.00
2022-08-12T01:29:28.551Z,5.18
2022-08-12T01:32:05.218Z,7.85
2022-08-12T01:34:39.030Z,5.35
2022-08-12T01:37:11.038Z,7.40
2022-08-12T01:40:34.314Z,4.27
2022-08-12T01:42:40.947Z,5.68
2022-08-12T01:45:12.493Z,8.30
2022-08-12T01:47:53.693Z,6.10
2022-08-12T01:50:26.513Z,5.20
2022-08-12T01:53:05.487Z,5.40
2022-08-12T01:55:38.374Z,6.35
2022-08-12T01:58:26.297Z,6.20
2022-08-12T02:01:00.328Z,5.65
2022-08-12T02:04:05.174Z,6.40
2022-08-12T02:06:59.317Z,7.22
2022-08-12T02:10:03.218Z,4.97
2022-08-12T02:12:43.148Z,4.97
2022-08-12T02:15:28.556Z,7.22
2022-08-12T02:18:13.818Z,6.68
2022-08-12T02:20:52.791Z,11.43
2022-08-12T02:23:27.139Z,5.85
2022-08-12T02:25:59.428Z,6.95
2022-08-12T02:28:28.994Z,9.32
2022-08-12T02:31:03.048Z,6.65
2022-08-12T02:33:32.335Z,6.57
2022-08-12T02:36:03.173Z,7.45
2022-08-12T02:38:32.806Z,5.93
2022-08-12T02:41:05.060Z,5.65
2022-08-12T02:43:39.071Z,6.05
2022-08-12T02:46:14.844Z,6.38
2022-08-12T02:48:49.723Z,6.72
2022-08-12T02:51:21.546Z,6.85
2022-08-12T02:54:05.109Z,5.82
2022-08-12T02:56:37.110Z,6.80
2022-08-12T02:59:06.814Z,7.43
2022-08-12T03:01:47.467Z,7.00
2022-08-12T03:04:24.622Z,7.25
2022-08-12T03:07:03.018Z,6.18
2022-08-12T03:09:48.338Z,12.23
2022-08-12T03:12:33.728Z,7.80
2022-08-12T03:15:06.673Z,6.43
2022-08-12T03:17:44.424Z,6.68
2022-08-12T03:20:16.732Z,6.00
2022-08-12T03:22:46.330Z,6.53
2022-08-12T03:25:17.379Z,6.70
2022-08-12T03:27:56.020Z,9.48
2022-08-12T03:30:29.379Z,6.88
2022-08-12T03:33:00.083Z,7.10
2022-08-12T03:35:40.874Z,8.02
2022-08-12T03:38:16.220Z,8.27
2022-08-12T03:41:14.429Z,6.65
2022-08-12T03:44:06.718Z,9.07
2022-08-12T03:46:57.693Z,7.57
2022-08-12T03:49:45.805Z,8.45
2022-08-12T03:52:31.186Z,8.35
2022-08-12T03:55:17.008Z,8.63
2022-08-12T03:58:03.465Z,8.90
2022-08-12T04:00:34.521Z,8.32
2022-08-12T04:03:02.837Z,7.55
2022-08-12T04:05:54.490Z,7.63
2022-08-12T04:08:25.320Z,7.88
2022-08-12T04:11:11.970Z,6.68
2022-08-12T04:13:40.854Z,8.52
2022-08-12T04:16:10.809Z,7.93
2022-08-12T04:18:40.413Z,6.68
2022-08-12T04:21:10.867Z,7.30
2022-08-12T04:23:46.218Z,9.20
2022-08-12T04:26:16.507Z,7.75
2022-08-12T04:28:44.900Z,7.75
2022-08-12T04:31:14.346Z,9.32
2022-08-12T04:33:44.178Z,6.97
2022-08-12T04:36:13.593Z,7.03
2022-08-12T04:38:43.224Z,9.73
2022-08-12T04:41:18.202Z,7.30
2022-08-12T04:44:00.901Z,9.15
2022-08-12T04:46:30.908Z,7.60
2022-08-12T04:49:04.523Z,10.73
2022-08-12T04:51:34.878Z,6.55
2022-08-12T04:54:04.691Z,7.75
2022-08-12T04:56:35.654Z,6.95
2022-08-12T04:59:05.011Z,8.18
2022-08-12T05:01:33.323Z,9.07
2022-08-12T05:04:02.934Z,7.53
2022-08-12T05:06:31.107Z,8.45
2022-08-12T05:09:01.288Z,8.43
2022-08-12T05:11:29.528Z,11.32
2022-08-12T05:14:00.296Z,11.63
2022-08-12T05:16:32.479Z,9.15
2022-08-12T05:19:02.899Z,9.63
2022-08-12T05:21:30.944Z,8.77
2022-08-12T05:24:00.346Z,10.05
2022-08-12T05:26:29.480Z,10.15
2022-08-12T05:28:57.638Z,9.10
2022-08-12T05:31:47.239Z,10.55
2022-08-12T05:34:15.579Z,8.82
2022-08-12T05:36:44.877Z,10.77
2022-08-12T05:39:14.901Z,9.25
2022-08-12T05:41:44.484Z,9.80
2022-08-12T05:44:13.526Z,9.13
2022-08-12T05:46:42.262Z,11.43
2022-08-12T05:49:10.398Z,15.50
2022-08-12T05:51:41.046Z,10.98
2022-08-12T05:54:11.173Z,10.48
2022-08-12T05:56:41.618Z,10.82
2022-08-12T05:59:12.083Z,11.43
2022-08-12T06:02:10.550Z,10.93
2022-08-12T06:04:29.499Z,8.95
2022-08-12T06:06:57.714Z,10.40
2022-08-12T06:09:26.480Z,10.90
2022-08-12T06:12:05.761Z,9.38
2022-08-12T06:14:38.785Z,8.57
2022-08-12T06:17:09.646Z,20.60
2022-08-12T06:20:26.160Z,10.35
2022-08-12T06:22:26.813Z,10.25
2022-08-12T06:24:54.948Z,8.95
2022-08-12T06:27:24.478Z,11.88
2022-08-12T06:30:08.232Z,8.38
2022-08-12T06:32:51.862Z,9.68
2022-08-12T06:35:48.693Z,10.85
2022-08-12T06:38:17.272Z,10.32
2022-08-12T06:41:03.340Z,7.90
2022-08-12T06:44:06.629Z,10.65
2022-08-12T06:46:22.787Z,10.80
2022-08-12T06:48:55.708Z,11.68
2022-08-12T06:51:23.886Z,10.32
2022-08-12T06:53:51.930Z,11.02
2022-08-12T06:56:20.596Z,10.38
2022-08-12T06:58:50.065Z,12.68
2022-08-12T07:01:18.639Z,12.13
2022-08-12T07:03:47.077Z,9.65
2022-08-12T07:06:15.600Z,10.32
2022-08-12T07:08:44.627Z,10.68
2022-08-12T07:11:15.626Z,8.60
2022-08-12T07:14:10.243Z,9.50
2022-08-12T07:16:49.287Z,10.13
2022-08-12T07:19:17.642Z,10.57
2022-08-12T07:22:00.264Z,9.98
2022-08-12T07:24:31.041Z,11.73
2022-08-12T07:26:59.768Z,10.48
2022-08-12T07:29:58.287Z,9.30
2022-08-12T07:32:18.380Z,8.70
2022-08-12T07:34:47.453Z,10.27
2022-08-12T07:37:17.787Z,8.65
2022-08-12T07:39:51.303Z,8.57
2022-08-12T07:44:57.149Z,9.23
2022-08-12T07:47:26.954Z,10.50
2022-08-12T07:50:04.480Z,11.35
2022-08-12T07:52:34.922Z,8.18
2022-08-12T07:55:03.248Z,8.10
2022-08-12T07:57:32.458Z,8.50
2022-08-12T08:00:04.856Z,7.88
2022-08-12T08:02:36.463Z,8.13
2022-08-12T08:05:05.322Z,9.98
2022-08-12T08:07:33.580Z,8.50
2022-08-12T08:10:05.039Z,8.32
2022-08-12T08:12:50.557Z,9.13
2022-08-12T08:15:20.254Z,9.30
2022-08-12T08:18:02.608Z,9.77
2022-08-12T08:20:34.097Z,7.65
2022-08-12T08:23:05.736Z,8.70
2022-08-12T08:25:36.994Z,7.22
2022-08-12T08:28:09.120Z,6.97
2022-08-12T08:30:40.513Z,9.15
2022-08-12T08:33:22.835Z,10.87
2022-08-12T08:35:59.176Z,9.38
2022-08-12T08:38:31.755Z,9.40
2022-08-12T08:42:17.838Z,7.60
2022-08-12T08:44:08.179Z,7.47
2022-08-12T08:46:38.239Z,8.23
2022-08-12T08:49:08.714Z,7.88
2022-08-12T08:51:37.169Z,9.77
2022-08-12T08:54:06.917Z,7.53
2022-08-12T08:56:42.873Z,8.35
2022-08-12T08:59:12.368Z,9.40
2022-08-12T09:01:41.021Z,4.93
2022-08-12T09:05:08.389Z,8.85
2022-08-12T09:07:16.894Z,8.05
2022-08-12T09:10:03.401Z,8.13
2022-08-12T09:12:54.145Z,5.97
2022-08-12T09:15:34.998Z,7.60
2022-08-12T09:18:08.950Z,6.75
2022-08-12T09:20:42.520Z,5.28
2022-08-12T09:26:04.494Z,6.25
2022-08-12T09:28:34.469Z,6.05
2022-08-12T09:34:28.085Z,7.75
2022-08-12T09:36:58.329Z,6.30
2022-08-12T09:40:05.442Z,5.55
2022-08-12T09:42:57.710Z,6.35
2022-08-12T09:46:05.418Z,8.90
2022-08-12T09:48:19.871Z,4.88
2022-08-12T09:50:52.155Z,5.55
2022-08-12T09:53:29.498Z,5.68
2022-08-12T09:56:58.400Z,7.68
2022-08-12T09:59:01.677Z,6.20
2022-08-12T10:01:35.368Z,7.95
2022-08-12T10:04:19.135Z,6.63
2022-08-12T10:06:54.703Z,5.03
2022-08-12T10:09:28.671Z,5.05
2022-08-12T10:12:33.575Z,8.30
2022-08-12T10:15:02.250Z,8.65
2022-08-12T10:17:30.651Z,7.20
2022-08-12T10:19:59.771Z,5.38
2022-08-12T10:22:39.197Z,5.93
2022-08-12T10:26:36.752Z,3.88
2022-08-12T10:28:38.356Z,5.22
2022-08-12T10:31:16.375Z,4.80
2022-08-12T10:34:04.903Z,7.18
2022-08-12T10:36:40.388Z,5.53
2022-08-12T10:39:59.929Z,5.45
2022-08-12T10:42:29.058Z,6.90
2022-08-12T10:45:00.998Z,5.10
2022-08-12T10:48:15.966Z,5.60
2022-08-12T10:50:33.598Z,5.03
2022-08-12T10:53:09.548Z,4.32
2022-08-12T10:55:38.183Z,5.35
2022-08-12T10:58:15.147Z,4.95
2022-08-12T11:01:26.119Z,5.07
2022-08-12T11:04:22.961Z,5.70
2022-08-12T11:07:06.569Z,7.80
2022-08-12T11:09:41.698Z,5.10
2022-08-12T11:12:55.865Z,6.68
2022-08-12T11:15:18.479Z,6.68
2022-08-12T11:17:52.345Z,5.88
2022-08-12T11:20:23.925Z,5.55
2022-08-12T11:22:59.040Z,5.75
2022-08-12T11:25:56.697Z,3.70
2022-08-12T11:28:17.430Z,6.20
2022-08-12T11:31:03.824Z,6.13
2022-08-12T11:34:05.524Z,4.88
2022-08-12T11:36:22.088Z,5.47
2022-08-12T11:38:51.278Z,5.82
2022-08-12T11:41:28.084Z,4.47
2022-08-12T11:44:00.504Z,4.38
2022-08-12T11:46:51.383Z,10.10
2022-08-12T11:49:30.593Z,3.78
2022-08-12T11:52:00.150Z,4.30
2022-08-12T11:54:29.689Z,5.78
2022-08-12T11:57:00.005Z,7.38
2022-08-12T12:02:20.579Z,6.35
2022-08-12T12:04:53.111Z,7.28
2022-08-12T12:08:36.756Z,5.22
2022-08-12T12:10:14.234Z,4.90
2022-08-12T12:12:49.625Z,6.00
2022-08-12T12:15:25.068Z,5.80
2022-08-12T12:18:06.788Z,4.57
2022-08-12T12:20:35.827Z,4.07
2022-08-12T12:23:04.373Z,5.55
2022-08-12T12:26:07.412Z,5.78
2022-08-12T12:28:36.902Z,6.40
2022-08-12T12:31:15.155Z,4.97
2022-08-12T12:33:58.180Z,4.82
2022-08-12T12:36:30.111Z,6.97
2022-08-12T12:42:43.101Z,5.75
2022-08-12T12:44:25.906Z,4.65
2022-08-12T12:47:26.053Z,4.72
2022-08-12T12:49:56.636Z,6.70
2022-08-12T12:52:27.070Z,7.00
2022-08-12T12:54:58.634Z,8.68
2022-08-12T12:57:58.841Z,5.38
2022-08-12T13:00:16.791Z,3.63
2022-08-12T13:02:53.681Z,7.88
2022-08-12T13:05:27.736Z,5.32
2022-08-12T13:08:00.598Z,6.78
2022-08-12T13:10:37.022Z,7.05
2022-08-12T13:14:08.191Z,5.25
2022-08-12T13:15:59.404Z,5.60
2022-08-12T13:18:36.685Z,4.47
2022-08-12T13:21:15.823Z,5.53
2022-08-12T13:23:57.957Z,4.97
2022-08-12T13:26:26.187Z,5.35
2022-08-12T13:28:56.617Z,10.20
2022-08-12T13:31:24.950Z,5.85
2022-08-12T13:34:32.000Z,7.00
2022-08-12T13:36:43.487Z,5.60
2022-08-12T13:39:13.046Z,6.43
2022-08-12T13:41:44.662Z,4.63
2022-08-12T13:44:13.130Z,4.05
2022-08-12T13:46:42.187Z,4.68
2022-08-12T13:49:20.435Z,4.72
2022-08-12T13:52:03.030Z,5.30
2022-08-12T13:54:32.914Z,4.70
2022-08-12T13:57:01.571Z,3.50
2022-08-12T13:59:30.974Z,7.25
2022-08-12T14:02:18.341Z,6.25
2022-08-12T14:04:56.649Z,8.70
2022-08-12T14:07:27.538Z,6.88
2022-08-12T14:10:16.111Z,4.85
2022-08-12T14:12:54.063Z,4.13
2022-08-12T14:15:34.985Z,3.88
2022-08-12T14:18:10.356Z,4.97
2022-08-12T14:20:43.667Z,4.93
2022-08-12T14:23:34.251Z,7.47
2022-08-12T14:26:03.533Z,5.53
2022-08-12T14:28:34.895Z,5.13
2022-08-12T14:33:48.969Z,6.22
2022-08-12T14:36:21.677Z,4.95
2022-08-12T14:38:54.182Z,9.32
2022-08-12T14:41:24.136Z,3.92
2022-08-12T14:44:56.865Z,5.43
2022-08-12T14:46:55.828Z,4.68
2022-08-12T14:50:37.502Z,3.35
2022-08-12T14:53:31.682Z,5.70
2022-08-12T14:57:56.657Z,5.15
2022-08-12T15:00:50.700Z,10.07
2022-08-12T15:03:23.315Z,3.72
2022-08-12T15:06:05.296Z,3.95
2022-08-12T15:08:37.093Z,2.85
2022-08-12T15:11:09.941Z,4.00
2022-08-12T15:13:39.724Z,4.05
2022-08-12T15:16:08.432Z,3.83
2022-08-12T15:18:38.026Z,6.20
2022-08-12T15:21:11.611Z,3.30
2022-08-12T15:23:45.745Z,5.10
2022-08-12T15:26:35.439Z,4.18
2022-08-12T15:29:06.637Z,3.17
2022-08-12T15:31:59.837Z,4.18
2022-08-12T15:34:30.651Z,7.20
2022-08-12T15:36:58.888Z,7.30
2022-08-12T15:39:28.086Z,5.18
2022-08-12T15:42:01.993Z,4.95
2022-08-12T15:44:38.654Z,7.68
2022-08-12T15:47:11.054Z,3.50
2022-08-12T15:49:54.441Z,5.93
2022-08-12T15:52:30.805Z,4.38
2022-08-12T15:55:05.893Z,5.70
2022-08-12T15:57:53.269Z,2.40
2022-08-12T16:00:32.919Z,4.70
2022-08-12T16:03:05.726Z,2.97
2022-08-12T16:06:13.107Z,8.23
2022-08-12T16:08:27.410Z,5.05
2022-08-12T16:10:56.797Z,5.45
2022-08-12T16:13:34.469Z,4.22
2022-08-12T16:16:12.251Z,3.13
2022-08-12T16:18:51.441Z,5.93
2022-08-12T16:21:51.991Z,3.83
2022-08-12T16:24:08.486Z,2.60
2022-08-12T16:26:40.766Z,2.63
2022-08-12T16:29:15.040Z,3.25
2022-08-12T16:31:44.030Z,5.15
2022-08-12T16:34:26.187Z,6.07
2022-08-12T16:39:40.162Z,6.95
2022-08-12T16:42:27.809Z,6.03
2022-08-12T16:44:59.443Z,3.33
2022-08-12T16:47:28.207Z,3.60
2022-08-12T16:49:57.867Z,6.82
2022-08-12T16:52:26.385Z,3.90
2022-08-12T16:54:55.208Z,3.63
2022-08-12T16:57:35.082Z,3.65
2022-08-12T17:00:07.074Z,4.57
2022-08-12T17:02:37.814Z,5.28
2022-08-12T17:05:14.968Z,3.75
2022-08-12T17:07:52.070Z,3.63
2022-08-12T17:10:35.957Z,5.60
2022-08-12T17:13:10.289Z,4.32
2022-08-12T17:15:56.850Z,3.65
2022-08-12T17:18:44.008Z,4.18
2022-08-12T17:21:40.604Z,6.05
2022-08-12T17:24:21.655Z,5.45
2022-08-12T17:26:53.843Z,6.95
2022-08-12T17:29:24.288Z,3.50
2022-08-12T17:32:14.364Z,4.38
2022-08-12T17:35:00.131Z,4.38
2022-08-12T17:37:28.616Z,6.38
2022-08-12T17:40:07.482Z,6.80
2022-08-12T17:42:47.647Z,4.63
2022-08-12T17:45:19.270Z,3.70
2022-08-12T17:48:01.730Z,5.70
2022-08-12T17:50:35.936Z,3.67
2022-08-12T17:53:05.517Z,4.75
2022-08-12T17:55:44.004Z,7.10
2022-08-12T17:58:15.931Z,7.93
2022-08-12T18:00:45.163Z,6.93
2022-08-12T18:04:04.728Z,6.70
2022-08-12T18:06:13.760Z,8.27
2022-08-12T18:08:53.398Z,9.80
2022-08-12T18:12:03.892Z,6.22
2022-08-12T18:14:27.901Z,6.17
2022-08-12T18:17:00.652Z,5.45
2022-08-12T18:20:04.091Z,6.70
2022-08-12T18:22:22.104Z,7.72
2022-08-12T18:25:04.273Z,4.80
2022-08-12T18:27:46.757Z,6.78
2022-08-12T18:30:28.930Z,4.32
2022-08-12T18:33:03.627Z,4.13
2022-08-12T18:35:46.853Z,7.35
2022-08-12T18:38:22.572Z,4.80
2022-08-12T18:41:21.826Z,6.70
2022-08-12T18:44:00.050Z,3.40
2022-08-12T18:46:35.931Z,5.57
2022-08-12T18:49:17.006Z,3.95
2022-08-12T18:51:55.073Z,5.95
2022-08-12T18:54:33.354Z,4.45
2022-08-12T18:57:16.267Z,7.53
2022-08-12T19:00:01.054Z,3.80
2022-08-12T19:02:36.183Z,5.57
2022-08-12T19:05:10.723Z,4.45
2022-08-12T19:07:58.144Z,6.78
2022-08-12T19:10:30.570Z,6.47
2022-08-12T19:13:24.294Z,4.25
2022-08-12T19:15:54.649Z,4.25
2022-08-12T19:18:30.187Z,4.40
2022-08-12T19:21:11.710Z,4.32
2022-08-12T19:24:05.213Z,4.43
2022-08-12T19:26:33.445Z,3.88
2022-08-12T19:29:05.210Z,4.30
2022-08-12T19:31:58.800Z,6.28
2022-08-12T19:37:27.409Z,4.80
2022-08-12T19:40:20.583Z,5.10
2022-08-12T19:43:01.935Z,5.35
2022-08-12T19:45:43.628Z,5.25
2022-08-12T19:48:18.962Z,5.57
2022-08-12T19:50:49.930Z,6.40
2022-08-12T19:53:18.984Z,8.67
2022-08-12T19:55:52.746Z,7.38
2022-08-12T19:58:22.147Z,6.18
2022-08-12T20:00:54.337Z,5.63
2022-08-12T20:03:40.231Z,6.88
2022-08-12T20:06:13.949Z,5.00
2022-08-12T20:08:48.893Z,5.20
2022-08-12T20:12:09.195Z,7.20
2022-08-12T20:14:11.914Z,7.50
2022-08-12T20:16:52.021Z,7.57
2022-08-12T20:19:24.610Z,7.63
2022-08-12T20:22:14.408Z,6.95
2022-08-12T20:24:45.909Z,6.70
2022-08-12T20:27:29.181Z,6.30
2022-08-12T20:30:05.933Z,5.68
2022-08-12T20:32:37.637Z,8.13
2022-08-12T20:35:24.375Z,9.47
2022-08-12T20:38:07.297Z,9.63
2022-08-12T20:40:47.928Z,8.48
2022-08-12T20:45:57.392Z,6.90
2022-08-12T20:48:29.420Z,10.82
2022-08-12T20:51:04.672Z,9.27
2022-08-12T20:53:54.221Z,9.38
2022-08-12T20:56:31.135Z,8.75
2022-08-12T20:59:03.320Z,6.68
2022-08-12T21:01:46.609Z,6.73
2022-08-12T21:04:35.669Z,7.47
2022-08-12T21:07:09.157Z,9.95
2022-08-12T21:09:43.927Z,9.82
2022-08-12T21:12:31.132Z,9.13
2022-08-12T21:15:22.909Z,11.30
2022-08-12T21:18:08.970Z,12.95
2022-08-12T21:20:49.649Z,12.52
2022-08-12T21:23:19.086Z,12.02
2022-08-12T21:25:48.245Z,8.35
2022-08-12T21:28:30.879Z,9.93
2022-08-12T21:32:37.871Z,6.30
2022-08-12T21:34:07.713Z,8.38
2022-08-12T21:36:39.866Z,7.25
2022-08-12T21:39:19.105Z,6.28
2022-08-12T21:41:52.027Z,7.45
2022-08-12T21:44:24.536Z,7.07
2022-08-12T21:47:20.023Z,6.93
2022-08-12T21:50:04.019Z,5.47
2022-08-12T21:52:36.764Z,5.03
2022-08-12T21:55:08.366Z,5.82
2022-08-12T21:57:51.286Z,5.07
2022-08-12T22:00:31.499Z,9.05
2022-08-12T22:03:25.146Z,6.03
2022-08-12T22:06:31.135Z,5.20
2022-08-12T22:09:16.374Z,5.55
2022-08-12T22:11:56.066Z,6.97
2022-08-12T22:14:29.107Z,9.18
2022-08-12T22:16:58.752Z,11.35
2022-08-12T22:19:35.073Z,6.47
2022-08-12T22:22:04.124Z,6.85
2022-08-12T22:24:33.439Z,6.78
2022-08-12T22:27:18.153Z,5.82
2022-08-12T22:30:09.534Z,6.55
2022-08-12T22:35:47.306Z,8.80
2022-08-12T22:38:23.761Z,11.50
2022-08-12T22:40:56.840Z,11.23
2022-08-12T22:43:58.917Z,10.70
2022-08-12T22:46:53.060Z,10.35
2022-08-12T22:49:25.984Z,12.05
2022-08-12T22:52:10.512Z,10.52
2022-08-12T22:54:46.363Z,12.15
2022-08-12T22:57:53.507Z,9.48
2022-08-12T23:00:24.148Z,10.13
2022-08-12T23:03:03.077Z,12.23
2022-08-12T23:05:57.075Z,9.93
2022-08-12T23:08:30.167Z,13.10
2022-08-12T23:11:00.251Z,17.98
2022-08-12T23:13:49.134Z,16.88
2022-08-12T23:16:31.270Z,16.55
2022-08-12T23:19:09.939Z,18.80
2022-08-12T23:22:06.142Z,18.60
2022-08-12T23:24:53.687Z,20.73
2022-08-12T23:27:50.616Z,18.30
2022-08-12T23:30:31.699Z,14.25
2022-08-12T23:33:03.002Z,14.15
2022-08-12T23:35:58.789Z,13.32
2022-08-12T23:38:32.251Z,19.45
2022-08-12T23:41:05.699Z,9.80
2022-08-12T23:43:38.861Z,11.07
2022-08-12T23:46:10.665Z,10.48
2022-08-12T23:48:39.970Z,8.27
2022-08-12T23:51:23.081Z,9.48
2022-08-12T23:53:56.327Z,9.93
2022-08-12T23:56:34.047Z,7.80
2022-08-12T23:59:03.503Z,9.23
